Catàleg de serveis del Meteocat
Campanya meteocatpedra

Dades de l'estació automàtica Monells

?
?
Resum diari 22:30 TU
Dades diàries de l'estació meteorològica
Temperatura mitjana 8.2 °C
Temperatura màxima 14.6 °C 14:04 TU
Temperatura mínima 2.2 °C 1:46 TU
Humitat relativa mitjana 82%
Precipitació acumulada 0.0 mm
Ratxa màxima del vent (2 m) 20.5 km/h - 36º 14:48 TU
Irradiació solar global 6.5 MJ/m2

El tram horari està expressat en Temps Universal (TU). Cal sumar una hora en horari d'hivern i dues en horari d'estiu per passar a l'hora oficial.

Monells

Metadades estació meteorol´gica
Municipi Cruïlles, Monells i Sant Sadurní de l'Heura
Comarca Baix Empordà
Altitud 60 m
Data alta 04.03.1998
Estat actual Operativa
Dades de període
Període
TU
TM
°C
TX
°C
TN
°C
HRM
%
PPT
mm
VVM (2 m)
km/h
DVM (2 m)
graus
VVX (2 m)
km/h
RS
W/m2
00:00 - 00:30 3.4 3.7 3.0 96 0.0 4.0 234 6.1 0
00:30 - 01:00 3.1 3.4 2.8 96 0.0 3.6 243 6.1 0
01:00 - 01:30 3.1 3.5 2.9 96 0.0 3.2 244 5.0 0
01:30 - 02:00 2.9 3.3 2.2 96 0.0 1.8 240 5.0 0
02:00 - 02:30 3.2 3.6 3.0 97 0.0 2.5 216 5.8 0
02:30 - 03:00 3.8 3.9 3.6 97 0.0 1.8 219 4.7 0
03:00 - 03:30 4.1 4.6 3.8 97 0.0 0.7 247 2.9 0
03:30 - 04:00 4.7 4.8 4.6 97 0.0 1.4 221 4.0 0
04:00 - 04:30 4.7 5.1 4.4 96 0.0 2.2 224 4.0 0
04:30 - 05:00 5.2 5.3 5.0 96 0.0 1.1 216 3.6 0
05:00 - 05:30 5.3 5.5 5.1 96 0.0 1.1 252 4.3 0
05:30 - 06:00 4.9 5.4 4.8 96 0.0 1.8 236 5.8 0
06:00 - 06:30 4.8 5.2 4.2 95 0.0 1.1 262 4.0 0
06:30 - 07:00 4.4 4.8 4.2 97 0.0 1.8 214 4.3 13
07:00 - 07:30 5.3 5.8 4.9 97 0.0 2.5 210 4.7 47
07:30 - 08:00 6.3 6.8 5.9 94 0.0 1.4 211 5.0 83
08:00 - 08:30 8.2 9.4 6.8 87 0.0 1.4 191 4.3 143
08:30 - 09:00 9.8 10.2 9.4 76 0.0 1.8 286 9.0 139
09:00 - 09:30 10.2 10.5 10.2 72 0.0 3.6 357 9.0 145
09:30 - 10:00 10.5 10.6 10.4 73 0.0 1.8 347 5.0 87
10:00 - 10:30 10.5 10.9 10.4 73 0.0 2.5 329 6.1 118
10:30 - 11:00 11.8 13.0 10.9 67 0.0 4.3 4 9.7 380
11:00 - 11:30 12.8 13.1 12.5 62 0.0 9.7 39 19.8 389
11:30 - 12:00 13.0 13.1 12.9 61 0.0 8.3 42 16.9 321
12:00 - 12:30 13.1 13.1 13.0 62 0.0 5.8 11 13.0 224
12:30 - 13:00 13.3 13.6 13.1 64 0.0 6.5 30 13.7 277
13:00 - 13:30 13.6 14.3 13.1 62 0.0 6.5 34 14.4 370
13:30 - 14:00 14.3 14.5 14.1 58 0.0 6.5 10 13.7 390
14:00 - 14:30 14.3 14.6 13.7 59 0.0 7.6 26 18.4 228
14:30 - 15:00 13.3 13.6 13.1 60 0.0 9.4 23 20.5 100
15:00 - 15:30 12.8 13.1 12.6 61 0.0 8.6 37 18.4 107
15:30 - 16:00 12.2 12.6 11.8 61 0.0 5.8 30 12.6 61
16:00 - 16:30 11.5 11.8 11.0 65 0.0 2.5 342 9.7 8
16:30 - 17:00 10.8 11.4 10.3 67 0.0 1.4 21 5.0 0
17:00 - 17:30 9.9 10.6 9.4 72 0.0 0.7 27 4.0 0
17:30 - 18:00 9.4 9.7 9.3 82 0.0 1.1 238 4.7 0
18:00 - 18:30 9.2 9.4 8.6 85 0.0 1.8 236 4.7 0
18:30 - 19:00 8.0 8.4 7.7 87 0.0 1.1 246 4.7 0
19:00 - 19:30 8.2 8.5 7.9 87 0.0 2.2 242 7.2 0
19:30 - 20:00 8.5 8.9 8.3 84 0.0 4.0 204 12.6 0
20:00 - 20:30 8.5 8.9 8.0 83 0.0 2.9 228 7.9 0
20:30 - 21:00 8.1 8.5 7.8 84 0.0 2.2 241 6.5 0
21:00 - 21:30 6.7 7.7 6.2 89 0.0 1.4 216 4.3 0
21:30 - 22:00 6.1 6.4 5.6 91 0.0 3.6 236 5.8 0
22:00 - 22:30 5.3 5.5 5.1 93 0.0 3.2 240 5.0 0
22:30 - 23:00 5.1 5.3 5.0 94 0.0 2.2 228 5.0 0

Les dades en taronja només han passat un control de qualitat automàtic. Resta pendent la seva validació definitiva.